createdAt,value
2018-07-24T00:00:17.041Z,16.60
2018-07-24T00:01:17.028Z,16.80
2018-07-24T00:02:17.012Z,16.81
2018-07-24T00:03:17.012Z,16.83
2018-07-24T00:04:16.986Z,16.89
2018-07-24T00:05:17.018Z,16.86
2018-07-24T00:06:16.961Z,16.89
2018-07-24T00:07:16.945Z,16.70
2018-07-24T00:08:16.925Z,16.67
2018-07-24T00:09:16.913Z,16.50
2018-07-24T00:10:16.913Z,16.48
2018-07-24T00:11:16.881Z,16.37
2018-07-24T00:12:16.873Z,16.38
2018-07-24T00:13:16.851Z,16.38
2018-07-24T00:14:16.842Z,16.38
2018-07-24T00:15:16.827Z,16.31
2018-07-24T00:16:16.810Z,16.40
2018-07-24T00:17:16.797Z,16.34
2018-07-24T00:18:16.787Z,16.40
2018-07-24T00:19:16.775Z,16.37
2018-07-24T00:20:16.762Z,16.37
2018-07-24T00:21:16.756Z,16.34
2018-07-24T00:22:16.737Z,16.31
2018-07-24T00:23:16.720Z,16.31
2018-07-24T00:24:16.708Z,16.33
2018-07-24T00:25:16.689Z,16.26
2018-07-24T00:26:16.688Z,16.38
2018-07-24T00:27:16.658Z,16.40
2018-07-24T00:28:16.711Z,16.38
2018-07-24T00:29:16.634Z,16.41
2018-07-24T00:30:16.613Z,16.41
2018-07-24T00:31:16.604Z,16.37
2018-07-24T00:32:16.652Z,16.38
2018-07-24T00:33:16.658Z,16.25
2018-07-24T00:34:16.556Z,16.27
2018-07-24T00:35:16.545Z,16.30
2018-07-24T00:36:16.536Z,16.20
2018-07-24T00:37:16.512Z,16.18
2018-07-24T00:38:16.501Z,16.12
2018-07-24T00:39:16.488Z,16.11
2018-07-24T00:40:16.471Z,16.09
2018-07-24T00:41:16.463Z,16.07
2018-07-24T00:42:16.444Z,16.27
2018-07-24T00:43:16.422Z,16.26
2018-07-24T00:44:16.412Z,16.30
2018-07-24T00:45:16.393Z,16.37
2018-07-24T00:46:16.384Z,16.41
2018-07-24T00:47:16.380Z,16.48
2018-07-24T00:48:16.352Z,16.34
2018-07-24T00:49:16.351Z,16.35
2018-07-24T00:50:16.324Z,16.35
2018-07-24T00:51:16.316Z,16.23
2018-07-24T00:52:16.296Z,16.25
2018-07-24T00:53:16.294Z,16.11
2018-07-24T00:54:16.334Z,16.09
2018-07-24T00:55:16.249Z,16.12
2018-07-24T00:56:16.234Z,16.03
2018-07-24T00:57:16.227Z,16.00
2018-07-24T00:58:16.211Z,16.06
2018-07-24T00:59:16.200Z,16.01
2018-07-24T01:00:16.176Z,16.03
2018-07-24T01:01:16.169Z,16.09
2018-07-24T01:02:16.147Z,16.09
2018-07-24T01:03:16.125Z,16.09
2018-07-24T01:04:16.131Z,16.11
2018-07-24T01:05:16.105Z,16.12
2018-07-24T01:06:16.093Z,16.03
2018-07-24T01:07:16.074Z,15.97
2018-07-24T01:08:16.069Z,15.94
2018-07-24T01:09:16.049Z,15.82
2018-07-24T01:10:16.033Z,15.74
2018-07-24T01:11:16.020Z,15.75
2018-07-24T01:12:16.023Z,15.78
2018-07-24T01:13:15.988Z,15.84
2018-07-24T01:14:15.980Z,15.84
2018-07-24T01:15:15.962Z,15.82
2018-07-24T01:16:15.957Z,15.75
2018-07-24T01:17:15.934Z,15.85
2018-07-24T01:18:15.911Z,15.79
2018-07-24T01:19:15.904Z,15.85
2018-07-24T01:20:15.882Z,15.78
2018-07-24T01:21:15.864Z,15.79
2018-07-24T01:22:15.858Z,15.70
2018-07-24T01:23:15.842Z,15.68
2018-07-24T01:24:15.829Z,15.74
2018-07-24T01:25:15.806Z,15.67
2018-07-24T01:26:15.806Z,15.74
2018-07-24T01:27:15.785Z,15.75
2018-07-24T01:28:15.770Z,15.70
2018-07-24T01:29:15.752Z,15.68
2018-07-24T01:30:15.736Z,15.66
2018-07-24T01:31:15.710Z,15.68
2018-07-24T01:32:15.709Z,15.59
2018-07-24T01:33:15.685Z,15.67
2018-07-24T01:34:15.672Z,15.68
2018-07-24T01:35:15.664Z,15.51
2018-07-24T01:36:15.653Z,15.56
2018-07-24T01:37:15.631Z,15.57
2018-07-24T01:38:15.612Z,15.60
2018-07-24T01:39:15.605Z,15.59
2018-07-24T01:40:15.586Z,15.60
2018-07-24T01:41:15.573Z,15.51
2018-07-24T01:42:15.554Z,15.48
2018-07-24T01:43:15.541Z,15.45
2018-07-24T01:44:15.526Z,15.48
2018-07-24T01:45:15.509Z,15.42
2018-07-24T01:46:15.500Z,15.35
2018-07-24T01:47:15.493Z,15.43
2018-07-24T01:48:15.460Z,15.38
2018-07-24T01:49:15.447Z,15.39
2018-07-24T01:50:15.441Z,15.45
2018-07-24T01:51:15.415Z,15.48
2018-07-24T01:52:15.413Z,15.64
2018-07-24T01:53:15.393Z,15.63
2018-07-24T01:54:15.387Z,15.63
2018-07-24T01:55:15.371Z,15.61
2018-07-24T01:56:15.351Z,15.52
2018-07-24T01:57:15.329Z,15.61
2018-07-24T01:58:15.316Z,15.57
2018-07-24T01:59:15.310Z,15.49
2018-07-24T02:00:15.287Z,15.39
2018-07-24T02:01:15.266Z,15.35
2018-07-24T02:02:15.253Z,15.39
2018-07-24T02:03:15.244Z,15.28
2018-07-24T02:04:15.236Z,15.26
2018-07-24T02:05:15.217Z,15.26
2018-07-24T02:06:15.203Z,15.21
2018-07-24T02:07:15.183Z,15.17
2018-07-24T02:08:15.167Z,15.24
2018-07-24T02:09:15.151Z,15.17
2018-07-24T02:10:15.136Z,15.19
2018-07-24T02:11:15.126Z,15.15
2018-07-24T02:12:15.111Z,15.09
2018-07-24T02:13:15.094Z,15.06
2018-07-24T02:14:15.075Z,15.02
2018-07-24T02:15:15.065Z,15.02
2018-07-24T02:16:15.049Z,15.05
2018-07-24T02:17:15.033Z,14.91
2018-07-24T02:18:15.027Z,15.02
2018-07-24T02:19:15.005Z,15.02
2018-07-24T02:20:14.982Z,15.03
2018-07-24T02:21:14.966Z,14.93
2018-07-24T02:22:14.949Z,14.90
2018-07-24T02:23:14.944Z,14.99
2018-07-24T02:24:14.917Z,14.88
2018-07-24T02:25:14.908Z,14.91
2018-07-24T02:26:14.892Z,14.87
2018-07-24T02:27:14.874Z,14.87
2018-07-24T02:28:14.859Z,14.80
2018-07-24T02:29:14.843Z,14.83
2018-07-24T02:30:14.824Z,14.84
2018-07-24T02:31:14.812Z,14.81
2018-07-24T02:32:14.800Z,14.84
2018-07-24T02:33:14.797Z,14.86
2018-07-24T02:34:14.766Z,14.86
2018-07-24T02:35:14.758Z,14.83
2018-07-24T02:36:14.745Z,14.87
2018-07-24T02:37:14.719Z,14.84
2018-07-24T02:38:14.716Z,14.91
2018-07-24T02:39:14.690Z,15.08
2018-07-24T02:40:14.680Z,15.12
2018-07-24T02:41:14.716Z,15.17
2018-07-24T02:42:14.645Z,15.13
2018-07-24T02:43:14.632Z,15.09
2018-07-24T02:44:14.626Z,15.12
2018-07-24T02:45:14.605Z,15.06
2018-07-24T02:46:14.591Z,15.05
2018-07-24T02:47:14.581Z,14.94
2018-07-24T02:48:14.555Z,14.91
2018-07-24T02:49:14.539Z,14.94
2018-07-24T02:50:14.528Z,15.08
2018-07-24T02:51:14.514Z,15.31
2018-07-24T02:52:14.488Z,15.45
2018-07-24T02:53:14.478Z,15.52
2018-07-24T02:54:14.465Z,15.66
2018-07-24T02:55:14.446Z,15.70
2018-07-24T02:56:14.438Z,15.76
2018-07-24T02:57:14.413Z,15.67
2018-07-24T02:58:14.398Z,15.59
2018-07-24T02:59:14.381Z,15.59
2018-07-24T03:00:14.367Z,15.54
2018-07-24T03:01:14.357Z,15.45
2018-07-24T03:02:14.341Z,15.38
2018-07-24T03:03:14.328Z,15.31
2018-07-24T03:04:14.305Z,15.21
2018-07-24T03:05:14.293Z,15.24
2018-07-24T03:06:14.290Z,15.09
2018-07-24T03:07:14.263Z,15.11
2018-07-24T03:08:14.250Z,15.11
2018-07-24T03:09:14.231Z,15.03
2018-07-24T03:10:14.221Z,15.06
2018-07-24T03:11:14.199Z,15.08
2018-07-24T03:12:14.187Z,15.06
2018-07-24T03:13:14.163Z,15.09
2018-07-24T03:14:14.157Z,14.93
2018-07-24T03:15:14.157Z,14.93
2018-07-24T03:16:14.175Z,14.84
2018-07-24T03:17:14.106Z,14.74
2018-07-24T03:18:14.090Z,14.75
2018-07-24T03:19:14.084Z,14.71
2018-07-24T03:20:14.062Z,14.65
2018-07-24T03:21:14.042Z,14.68
2018-07-24T03:22:14.029Z,14.71
2018-07-24T03:23:14.017Z,14.78
2018-07-24T03:24:13.997Z,14.84
2018-07-24T03:25:13.988Z,14.83
2018-07-24T03:26:13.970Z,14.84
2018-07-24T03:27:13.952Z,14.81
2018-07-24T03:28:13.968Z,14.84
2018-07-24T03:29:13.924Z,14.84
2018-07-24T03:30:13.902Z,14.80
2018-07-24T03:31:13.892Z,14.81
2018-07-24T03:32:13.876Z,14.68
2018-07-24T03:33:13.860Z,14.67
2018-07-24T03:34:13.851Z,14.69
2018-07-24T03:35:13.828Z,14.69
2018-07-24T03:36:13.816Z,14.83
2018-07-24T03:37:13.803Z,14.75
2018-07-24T03:38:13.781Z,14.87
2018-07-24T03:39:13.761Z,14.90
2018-07-24T03:40:13.760Z,14.87
2018-07-24T03:41:13.732Z,14.90
2018-07-24T03:42:13.720Z,14.87
2018-07-24T03:43:13.708Z,14.84
2018-07-24T03:44:13.701Z,14.80
2018-07-24T03:45:13.681Z,14.84
2018-07-24T03:46:13.663Z,14.81
2018-07-24T03:47:13.646Z,14.83
2018-07-24T03:48:13.624Z,14.81
2018-07-24T03:49:13.625Z,14.84
2018-07-24T03:50:13.608Z,14.86
2018-07-24T03:51:13.580Z,14.84
2018-07-24T03:52:13.566Z,14.83
2018-07-24T03:53:13.550Z,14.83
2018-07-24T03:54:13.538Z,14.84
2018-07-24T03:55:13.531Z,14.95
2018-07-24T03:56:13.496Z,14.88
2018-07-24T03:57:13.489Z,14.94
2018-07-24T03:58:13.491Z,14.81
2018-07-24T03:59:13.456Z,14.90
2018-07-24T04:00:13.456Z,14.84
2018-07-24T04:01:13.424Z,14.80
2018-07-24T04:02:13.431Z,14.86
2018-07-24T04:03:13.404Z,14.94
2018-07-24T04:04:13.385Z,14.88
2018-07-24T04:05:13.360Z,14.87
2018-07-24T04:06:13.347Z,14.91
2018-07-24T04:07:13.325Z,14.98
2018-07-24T04:08:13.309Z,14.91
2018-07-24T04:09:13.305Z,15.05
2018-07-24T04:10:13.283Z,15.01
2018-07-24T04:11:13.274Z,15.03
2018-07-24T04:12:13.250Z,15.05
2018-07-24T04:13:13.236Z,15.01
2018-07-24T04:14:13.219Z,14.93
2018-07-24T04:15:13.220Z,14.94
2018-07-24T04:16:13.184Z,14.95
2018-07-24T04:17:13.175Z,14.90
2018-07-24T04:18:13.158Z,14.88
2018-07-24T04:19:13.143Z,14.88
2018-07-24T04:20:13.130Z,14.86
2018-07-24T04:21:13.101Z,14.87
2018-07-24T04:22:13.094Z,14.80
2018-07-24T04:23:13.082Z,14.74
2018-07-24T04:24:13.069Z,14.78
2018-07-24T04:25:13.056Z,14.83
2018-07-24T04:26:13.033Z,14.78
2018-07-24T04:27:13.017Z,14.78
2018-07-24T04:28:13.032Z,14.71
2018-07-24T04:29:12.991Z,14.86
2018-07-24T04:30:12.976Z,14.65
2018-07-24T04:31:12.960Z,14.68
2018-07-24T04:32:12.940Z,14.80
2018-07-24T04:33:12.934Z,14.65
2018-07-24T04:34:12.905Z,14.80
2018-07-24T04:35:12.902Z,14.81
2018-07-24T04:36:12.886Z,14.81
2018-07-24T04:37:12.869Z,14.84
2018-07-24T04:38:12.866Z,14.95
2018-07-24T04:39:12.845Z,14.90
2018-07-24T04:40:12.866Z,15.05
2018-07-24T04:41:12.808Z,15.13
2018-07-24T04:42:12.788Z,15.19
2018-07-24T04:43:12.777Z,15.21
2018-07-24T04:44:12.760Z,15.30
2018-07-24T04:45:12.740Z,15.38
2018-07-24T04:46:12.732Z,15.35
2018-07-24T04:47:12.715Z,15.38
2018-07-24T04:48:12.697Z,15.33
2018-07-24T04:49:12.685Z,15.33
2018-07-24T04:50:12.670Z,15.41
2018-07-24T04:51:12.659Z,15.41
2018-07-24T04:52:12.634Z,15.54
2018-07-24T04:53:12.624Z,15.59
2018-07-24T04:54:12.609Z,15.51
2018-07-24T04:55:12.589Z,15.52
2018-07-24T04:56:12.570Z,15.54
2018-07-24T04:57:12.560Z,15.61
2018-07-24T04:58:12.547Z,15.64
2018-07-24T04:59:12.528Z,15.57
2018-07-24T05:00:12.519Z,15.66
2018-07-24T05:01:12.506Z,15.63
2018-07-24T05:02:12.480Z,15.74
2018-07-24T05:03:12.485Z,15.84
2018-07-24T05:04:12.457Z,15.78
2018-07-24T05:05:12.454Z,15.78
2018-07-24T05:06:12.429Z,15.88
2018-07-24T05:07:12.416Z,15.96
2018-07-24T05:08:12.397Z,16.01
2018-07-24T05:09:12.384Z,16.03
2018-07-24T05:10:12.390Z,16.03
2018-07-24T05:11:12.355Z,16.12
2018-07-24T05:12:12.346Z,16.14
2018-07-24T05:13:12.319Z,16.16
2018-07-24T05:14:12.313Z,16.20
2018-07-24T05:15:12.300Z,16.27
2018-07-24T05:16:12.288Z,16.31
2018-07-24T05:17:12.271Z,16.40
2018-07-24T05:18:12.260Z,16.38
2018-07-24T05:19:12.246Z,16.38
2018-07-24T05:20:12.224Z,16.38
2018-07-24T05:21:12.207Z,16.44
2018-07-24T05:22:12.191Z,16.50
2018-07-24T05:23:12.185Z,16.50
2018-07-24T05:24:12.165Z,16.62
2018-07-24T05:25:12.167Z,16.63
2018-07-24T05:26:12.139Z,16.71
2018-07-24T05:27:12.124Z,16.77
2018-07-24T05:28:12.108Z,16.90
2018-07-24T05:29:12.101Z,16.90
2018-07-24T05:30:12.080Z,16.90
2018-07-24T05:31:12.073Z,17.04
2018-07-24T05:32:12.060Z,17.03
2018-07-24T05:33:12.105Z,17.04
2018-07-24T05:34:12.038Z,17.14
2018-07-24T05:35:12.009Z,17.14
2018-07-24T05:36:11.992Z,17.17
2018-07-24T05:37:11.980Z,17.35
2018-07-24T05:38:11.978Z,17.43
2018-07-24T05:39:11.954Z,17.51
2018-07-24T05:40:11.945Z,17.54
2018-07-24T05:41:11.929Z,17.66
2018-07-24T05:42:11.911Z,17.67
2018-07-24T05:43:11.901Z,17.70
2018-07-24T05:44:11.880Z,17.88
2018-07-24T05:45:11.938Z,17.89
2018-07-24T05:46:11.854Z,17.89
2018-07-24T05:47:11.849Z,17.85
2018-07-24T05:48:11.844Z,17.94
2018-07-24T05:49:11.815Z,17.99
2018-07-24T05:50:11.800Z,18.12
2018-07-24T05:51:11.796Z,18.21
2018-07-24T05:52:11.777Z,18.28
2018-07-24T05:53:11.761Z,18.36
2018-07-24T05:54:11.758Z,18.43
2018-07-24T05:55:11.755Z,18.52
2018-07-24T05:56:11.723Z,18.74
2018-07-24T05:57:11.711Z,18.86
2018-07-24T05:58:11.697Z,18.92
2018-07-24T05:59:11.684Z,19.05
2018-07-24T06:00:11.666Z,19.02
2018-07-24T06:01:11.656Z,19.14
2018-07-24T06:02:11.649Z,19.24
2018-07-24T06:03:11.634Z,19.32
2018-07-24T06:04:11.619Z,19.39
2018-07-24T06:05:11.608Z,19.50
2018-07-24T06:06:11.596Z,19.69
2018-07-24T06:07:11.610Z,19.70
2018-07-24T06:08:11.573Z,19.79
2018-07-24T06:09:11.560Z,19.88
2018-07-24T06:10:11.548Z,19.94
2018-07-24T06:11:11.532Z,20.03
2018-07-24T06:12:11.528Z,20.12
2018-07-24T06:13:11.570Z,20.20
2018-07-24T06:14:11.496Z,20.27
2018-07-24T06:15:11.486Z,20.28
2018-07-24T06:16:11.471Z,20.39
2018-07-24T06:17:11.461Z,20.51
2018-07-24T06:18:11.448Z,20.53
2018-07-24T06:19:11.442Z,20.59
2018-07-24T06:20:11.456Z,20.56
2018-07-24T06:21:11.413Z,20.65
2018-07-24T06:22:11.410Z,20.80
2018-07-24T06:23:11.397Z,20.86
2018-07-24T06:24:11.381Z,20.99
2018-07-24T06:25:11.369Z,20.96
2018-07-24T06:26:11.362Z,21.04
2018-07-24T06:27:11.356Z,21.06
2018-07-24T06:28:11.336Z,21.09
2018-07-24T06:29:11.332Z,21.17
2018-07-24T06:30:11.317Z,21.27
2018-07-24T06:31:11.308Z,21.20
2018-07-24T06:32:11.302Z,21.27
2018-07-24T06:33:11.285Z,21.36
2018-07-24T06:34:11.270Z,21.44
2018-07-24T06:35:11.267Z,21.46
2018-07-24T06:36:11.248Z,21.57
2018-07-24T06:37:11.238Z,21.64
2018-07-24T06:38:11.225Z,21.74
2018-07-24T06:39:11.221Z,21.75
2018-07-24T06:40:11.206Z,21.76
2018-07-24T06:41:11.199Z,21.88
2018-07-24T06:42:11.186Z,21.91
2018-07-24T06:43:11.176Z,21.91
2018-07-24T06:44:11.171Z,21.98
2018-07-24T06:45:11.157Z,22.09
2018-07-24T06:46:11.139Z,22.14
2018-07-24T06:47:11.135Z,22.19
2018-07-24T06:48:11.135Z,22.23
2018-07-24T06:49:11.106Z,22.34
2018-07-24T06:50:11.096Z,22.34
2018-07-24T06:51:11.104Z,22.57
2018-07-24T06:52:11.080Z,22.59
2018-07-24T06:53:11.071Z,22.65
2018-07-24T06:54:11.060Z,22.77
2018-07-24T06:55:11.046Z,22.82
2018-07-24T06:56:11.030Z,22.87
2018-07-24T06:57:11.024Z,22.92
2018-07-24T06:58:11.014Z,22.97
2018-07-24T06:59:11.005Z,22.93
2018-07-24T07:00:10.998Z,23.01
2018-07-24T07:01:10.989Z,23.02
2018-07-24T07:02:11.056Z,23.08
2018-07-24T07:03:10.960Z,23.22
2018-07-24T07:04:10.959Z,23.34
2018-07-24T07:05:11.020Z,23.42
2018-07-24T07:06:10.937Z,23.52
2018-07-24T07:07:10.929Z,23.55
2018-07-24T07:08:10.915Z,23.72
2018-07-24T07:09:10.902Z,23.72
2018-07-24T07:10:10.951Z,23.83
2018-07-24T07:11:10.883Z,23.94
2018-07-24T07:12:10.871Z,24.10
2018-07-24T07:13:10.906Z,24.13
2018-07-24T07:14:10.858Z,24.22
2018-07-24T07:15:10.847Z,24.23
2018-07-24T07:16:10.933Z,24.31
2018-07-24T07:17:10.826Z,24.45
2018-07-24T07:18:10.817Z,24.49
2018-07-24T07:19:10.809Z,24.68
2018-07-24T07:20:10.807Z,24.60
2018-07-24T07:21:10.790Z,24.63
2018-07-24T07:22:10.787Z,24.67
2018-07-24T07:23:10.775Z,24.64
2018-07-24T07:24:10.762Z,24.64
2018-07-24T07:25:10.753Z,24.87
2018-07-24T07:26:10.814Z,24.95
2018-07-24T07:27:10.737Z,25.05
2018-07-24T07:28:10.743Z,25.25
2018-07-24T07:29:10.776Z,25.35
2018-07-24T07:30:10.712Z,25.43
2018-07-24T07:31:10.704Z,25.64
2018-07-24T07:32:10.719Z,25.83
2018-07-24T07:33:10.695Z,25.94
2018-07-24T07:34:11.481Z,26.12
2018-07-24T07:35:10.677Z,26.40
2018-07-24T07:36:10.675Z,26.67
2018-07-24T07:37:10.659Z,26.95
2018-07-24T07:38:10.676Z,27.13
2018-07-24T07:39:10.666Z,27.20
2018-07-24T07:40:10.643Z,27.35
2018-07-24T07:41:10.636Z,27.92
2018-07-24T07:42:10.630Z,28.58
2018-07-24T07:43:10.620Z,28.87
2018-07-24T07:44:10.623Z,29.07
2018-07-24T07:45:10.609Z,29.56
2018-07-24T07:46:10.606Z,29.86
2018-07-24T07:47:10.596Z,29.87
2018-07-24T07:48:10.596Z,30.24
2018-07-24T07:49:10.595Z,30.19
2018-07-24T07:50:10.584Z,30.34
2018-07-24T07:51:10.582Z,30.49
2018-07-24T07:52:10.563Z,30.53
2018-07-24T07:53:10.569Z,30.64
2018-07-24T07:54:10.560Z,30.84
2018-07-24T07:55:10.554Z,30.72
2018-07-24T07:56:10.547Z,30.72
2018-07-24T07:57:10.544Z,30.34
2018-07-24T07:58:10.543Z,30.34
2018-07-24T07:59:10.535Z,30.37
2018-07-24T08:00:10.532Z,30.43
2018-07-24T08:01:10.529Z,30.49
2018-07-24T08:02:10.531Z,30.76
2018-07-24T08:03:10.522Z,31.12
2018-07-24T08:04:10.574Z,31.24
2018-07-24T08:05:10.516Z,31.18
2018-07-24T08:06:10.509Z,31.18
2018-07-24T08:07:10.506Z,31.18
2018-07-24T08:08:10.503Z,31.09
2018-07-24T08:09:10.499Z,31.04
2018-07-24T08:10:10.499Z,31.06
2018-07-24T08:11:10.500Z,30.98
2018-07-24T08:12:10.481Z,30.83
2018-07-24T08:13:10.485Z,30.62
2018-07-24T08:14:10.533Z,30.61
2018-07-24T08:15:10.477Z,30.87
2018-07-24T08:16:10.466Z,30.89
2018-07-24T08:17:10.462Z,31.04
2018-07-24T08:18:10.459Z,30.91
2018-07-24T08:19:10.460Z,30.83
2018-07-24T08:20:10.456Z,30.78
2018-07-24T08:21:10.457Z,31.18
2018-07-24T08:22:10.485Z,31.38
2018-07-24T08:23:10.444Z,30.87
2018-07-24T08:24:10.438Z,30.43
2018-07-24T08:25:10.438Z,30.52
2018-07-24T08:26:10.433Z,30.91
2018-07-24T08:27:10.427Z,31.05
2018-07-24T08:28:10.465Z,31.13
2018-07-24T08:29:10.424Z,31.24
2018-07-24T08:30:10.415Z,31.36
2018-07-24T08:31:10.419Z,31.64
2018-07-24T08:32:10.412Z,32.00
2018-07-24T08:33:10.405Z,32.02
2018-07-24T08:34:10.408Z,31.80
2018-07-24T08:35:10.401Z,31.53
2018-07-24T08:36:10.402Z,31.64
2018-07-24T08:37:10.392Z,32.05
2018-07-24T08:38:10.392Z,32.15
2018-07-24T08:39:10.399Z,32.18
2018-07-24T08:40:10.383Z,32.44
2018-07-24T08:41:10.384Z,32.55
2018-07-24T08:42:10.380Z,32.40
2018-07-24T08:43:10.375Z,32.14
2018-07-24T08:44:10.373Z,31.84
2018-07-24T08:45:10.373Z,31.96
2018-07-24T08:46:10.367Z,31.99
2018-07-24T08:47:10.366Z,32.30
2018-07-24T08:48:10.363Z,32.32
2018-07-24T08:49:10.384Z,32.55
2018-07-24T08:50:10.360Z,32.80
2018-07-24T08:51:10.355Z,32.85
2018-07-24T08:52:10.347Z,32.79
2018-07-24T08:53:10.524Z,32.81
2018-07-24T08:54:10.480Z,32.98
2018-07-24T08:55:10.639Z,32.93
2018-07-24T08:56:10.335Z,33.07
2018-07-24T08:57:10.335Z,33.26
2018-07-24T08:58:10.331Z,33.45
2018-07-24T08:59:10.335Z,33.45
2018-07-24T09:00:10.331Z,33.31
2018-07-24T09:01:10.325Z,33.27
2018-07-24T09:02:10.319Z,33.27
2018-07-24T09:03:10.338Z,33.37
2018-07-24T09:04:10.379Z,33.11
2018-07-24T09:05:10.313Z,33.06
2018-07-24T09:06:10.309Z,32.81
2018-07-24T09:07:10.309Z,32.79
2018-07-24T09:08:10.370Z,32.40
2018-07-24T09:09:10.307Z,32.51
2018-07-24T09:10:10.336Z,32.70
2018-07-24T09:11:10.303Z,32.84
2018-07-24T09:12:10.351Z,32.76
2018-07-24T09:13:10.298Z,32.70
2018-07-24T09:14:10.299Z,32.70
2018-07-24T09:15:10.297Z,32.84
2018-07-24T09:16:10.287Z,33.03
2018-07-24T09:17:10.284Z,32.79
2018-07-24T09:18:10.291Z,32.85
2018-07-24T09:19:10.287Z,32.96
2018-07-24T09:20:10.278Z,32.89
2018-07-24T09:21:10.281Z,33.20
2018-07-24T09:22:10.278Z,32.47
2018-07-24T09:23:10.277Z,31.80
2018-07-24T09:24:10.267Z,31.53
2018-07-24T09:25:10.268Z,31.85
2018-07-24T09:26:10.268Z,32.32
2018-07-24T09:27:10.267Z,32.57
2018-07-24T09:28:10.258Z,32.89
2018-07-24T09:29:11.081Z,32.71
2018-07-24T09:30:10.252Z,32.52
2018-07-24T09:31:10.249Z,32.81
2018-07-24T09:32:10.307Z,32.86
2018-07-24T09:33:10.250Z,32.64
2018-07-24T09:34:10.248Z,32.73
2018-07-24T09:35:10.249Z,32.64
2018-07-24T09:36:10.239Z,32.70
2018-07-24T09:37:10.236Z,32.59
2018-07-24T09:38:10.235Z,32.43
2018-07-24T09:39:10.239Z,32.44
2018-07-24T09:40:10.235Z,32.61
2018-07-24T09:41:10.232Z,32.57
2018-07-24T09:42:10.223Z,32.85
2018-07-24T09:43:10.227Z,33.10
2018-07-24T09:44:10.220Z,33.36
2018-07-24T09:45:10.216Z,33.15
2018-07-24T09:46:10.213Z,33.10
2018-07-24T09:47:10.225Z,33.19
2018-07-24T09:48:10.216Z,33.42
2018-07-24T09:49:10.207Z,33.15
2018-07-24T09:50:10.217Z,33.29
2018-07-24T09:51:10.207Z,33.41
2018-07-24T09:52:10.213Z,33.60
2018-07-24T09:53:10.203Z,33.52
2018-07-24T09:54:10.208Z,33.41
2018-07-24T09:55:10.200Z,33.51
2018-07-24T09:56:10.194Z,33.70
2018-07-24T09:57:10.191Z,33.86
2018-07-24T09:58:10.192Z,33.92
2018-07-24T09:59:10.249Z,34.08
2018-07-24T10:00:10.198Z,33.98
2018-07-24T10:01:10.200Z,33.80
2018-07-24T10:02:10.185Z,33.70
2018-07-24T10:03:10.181Z,33.58
2018-07-24T10:04:10.175Z,33.33
2018-07-24T10:05:10.177Z,32.84
2018-07-24T10:06:10.178Z,32.74
2018-07-24T10:07:10.178Z,32.49
2018-07-24T10:08:10.172Z,32.59
2018-07-24T10:09:10.172Z,32.64
2018-07-24T10:10:10.168Z,32.71
2018-07-24T10:11:10.173Z,32.79
2018-07-24T10:12:10.202Z,32.81
2018-07-24T10:13:10.227Z,32.52
2018-07-24T10:14:10.211Z,31.93
2018-07-24T10:15:10.159Z,31.72
2018-07-24T10:16:10.156Z,31.36
2018-07-24T10:17:10.166Z,31.61
2018-07-24T10:18:10.153Z,31.95
2018-07-24T10:19:10.169Z,32.39
2018-07-24T10:20:10.146Z,32.48
2018-07-24T10:21:10.149Z,32.55
2018-07-24T10:22:10.150Z,32.76
2018-07-24T10:23:10.143Z,32.81
2018-07-24T10:24:10.146Z,32.84
2018-07-24T10:25:10.147Z,32.74
2018-07-24T10:26:10.146Z,32.85
2018-07-24T10:27:10.140Z,32.76
2018-07-24T10:28:10.145Z,32.89
2018-07-24T10:29:10.133Z,32.84
2018-07-24T10:30:10.133Z,32.91
2018-07-24T10:31:10.140Z,33.01
2018-07-24T10:32:10.138Z,33.04
2018-07-24T10:33:10.137Z,32.86
2018-07-24T10:34:10.131Z,32.89
2018-07-24T10:35:10.137Z,33.04
2018-07-24T10:36:10.140Z,32.85
2018-07-24T10:37:10.137Z,32.77
2018-07-24T10:38:10.130Z,32.89
2018-07-24T10:39:10.130Z,33.13
2018-07-24T10:40:10.137Z,33.06
2018-07-24T10:41:10.144Z,33.07
2018-07-24T10:42:10.137Z,33.29
2018-07-24T10:43:10.201Z,33.39
2018-07-24T10:44:10.134Z,33.57
2018-07-24T10:45:10.143Z,33.41
2018-07-24T10:46:10.140Z,33.14
2018-07-24T10:47:10.140Z,33.10
2018-07-24T10:48:10.143Z,32.93
2018-07-24T10:49:10.180Z,32.92
2018-07-24T10:50:10.146Z,33.01
2018-07-24T10:51:10.159Z,33.03
2018-07-24T10:52:10.155Z,33.11
2018-07-24T10:53:10.156Z,33.43
2018-07-24T10:54:10.152Z,33.08
2018-07-24T10:55:10.159Z,33.34
2018-07-24T10:56:10.161Z,33.58
2018-07-24T10:57:10.159Z,33.76
2018-07-24T10:58:10.165Z,33.74
2018-07-24T10:59:10.165Z,33.58
2018-07-24T11:00:10.165Z,33.33
2018-07-24T11:01:10.172Z,33.41
2018-07-24T11:02:10.184Z,33.73
2018-07-24T11:03:10.179Z,33.76
2018-07-24T11:04:10.184Z,33.83
2018-07-24T11:05:10.192Z,33.98
2018-07-24T11:06:10.205Z,34.26
2018-07-24T11:07:10.207Z,34.13
2018-07-24T11:08:10.203Z,34.22
2018-07-24T11:09:10.200Z,34.32
2018-07-24T11:10:10.210Z,34.48
2018-07-24T11:11:10.214Z,34.05
2018-07-24T11:12:10.220Z,34.08
2018-07-24T11:13:10.227Z,34.07
2018-07-24T11:14:10.229Z,33.94
2018-07-24T11:15:10.236Z,34.16
2018-07-24T11:16:10.235Z,34.29
2018-07-24T11:17:10.239Z,34.58
2018-07-24T11:18:10.242Z,34.74
2018-07-24T11:19:10.258Z,34.72
2018-07-24T11:20:10.261Z,34.79
2018-07-24T11:21:10.272Z,34.83
2018-07-24T11:22:10.342Z,34.94
2018-07-24T11:23:10.361Z,34.58
2018-07-24T11:24:10.274Z,34.32
2018-07-24T11:25:10.280Z,34.46
2018-07-24T11:26:10.286Z,34.57
2018-07-24T11:27:10.299Z,34.54
2018-07-24T11:28:10.305Z,34.58
2018-07-24T11:29:10.310Z,34.57
2018-07-24T11:30:10.331Z,34.36
2018-07-24T11:31:10.325Z,34.39
2018-07-24T11:32:10.331Z,34.56
2018-07-24T11:33:10.475Z,34.57
2018-07-24T11:34:10.338Z,34.48
2018-07-24T11:35:10.343Z,34.31
2018-07-24T11:36:10.353Z,34.24
2018-07-24T11:37:10.367Z,34.51
2018-07-24T11:38:10.366Z,34.70
2018-07-24T11:39:10.382Z,34.76
2018-07-24T11:40:10.378Z,35.03
2018-07-24T11:41:10.459Z,34.95
2018-07-24T11:42:10.395Z,34.66
2018-07-24T11:43:10.404Z,34.73
2018-07-24T11:44:10.457Z,35.01
2018-07-24T11:45:10.424Z,35.06
2018-07-24T11:46:10.424Z,34.86
2018-07-24T11:47:10.445Z,35.15
2018-07-24T11:48:10.443Z,35.39
2018-07-24T11:49:10.446Z,35.73
2018-07-24T11:50:10.465Z,35.67
2018-07-24T11:51:10.463Z,35.47
2018-07-24T11:52:10.481Z,35.55
2018-07-24T11:53:10.482Z,35.37
2018-07-24T11:54:10.493Z,35.55
2018-07-24T11:55:10.515Z,35.70
2018-07-24T11:56:10.513Z,35.89
2018-07-24T11:57:10.535Z,35.97
2018-07-24T11:58:10.524Z,36.17
2018-07-24T11:59:10.561Z,36.43
2018-07-24T12:00:10.542Z,36.19
2018-07-24T12:01:10.555Z,35.79
2018-07-24T12:02:10.557Z,35.35
2018-07-24T12:03:10.564Z,35.42
2018-07-24T12:04:10.570Z,35.32
2018-07-24T12:05:10.583Z,35.81
2018-07-24T12:06:10.596Z,36.12
2018-07-24T12:07:10.599Z,36.51
2018-07-24T12:08:10.605Z,36.86
2018-07-24T12:09:10.618Z,36.68
2018-07-24T12:10:10.630Z,36.11
2018-07-24T12:11:10.639Z,35.97
2018-07-24T12:12:10.644Z,36.03
2018-07-24T12:13:10.650Z,36.31
2018-07-24T12:14:10.662Z,36.14
2018-07-24T12:15:10.756Z,36.41
2018-07-24T12:16:10.679Z,36.39
2018-07-24T12:17:10.690Z,36.75
2018-07-24T12:18:10.705Z,36.75
2018-07-24T12:19:10.720Z,36.97
2018-07-24T12:20:10.724Z,36.68
2018-07-24T12:21:10.724Z,36.76
2018-07-24T12:22:10.749Z,36.75
2018-07-24T12:23:10.747Z,36.65
2018-07-24T12:24:10.753Z,36.95
2018-07-24T12:25:10.766Z,36.97
2018-07-24T12:26:10.773Z,36.86
2018-07-24T12:27:10.933Z,37.04
2018-07-24T12:28:10.792Z,35.79
2018-07-24T12:29:10.802Z,34.41
2018-07-24T12:30:10.805Z,33.55
2018-07-24T12:31:10.814Z,33.11
2018-07-24T12:32:10.821Z,32.93
2018-07-24T12:33:10.827Z,32.88
2018-07-24T12:34:10.835Z,32.74
2018-07-24T12:35:10.849Z,32.49
2018-07-24T12:36:10.931Z,33.34
2018-07-24T12:37:10.849Z,34.14
2018-07-24T12:38:10.849Z,34.60
2018-07-24T12:39:10.868Z,35.14
2018-07-24T12:40:10.865Z,35.39
2018-07-24T12:41:10.874Z,35.72
2018-07-24T12:42:10.940Z,36.08
2018-07-24T12:43:10.884Z,35.91
2018-07-24T12:44:10.891Z,35.93
2018-07-24T12:45:10.894Z,36.07
2018-07-24T12:46:10.900Z,36.24
2018-07-24T12:47:10.904Z,36.72
2018-07-24T12:48:10.906Z,36.86
2018-07-24T12:49:10.921Z,37.02
2018-07-24T12:50:10.923Z,37.07
2018-07-24T12:51:10.964Z,37.01
2018-07-24T12:52:10.942Z,36.56